sensor_id;sensor_type;location;lat;lon;timestamp;pressure;altitude;pressure_sealevel;temperature;humidity
55070;BME280;40967;52.070;8.596;2024-01-16T00:01:57;99456.94;;;0.28;100.00
55070;BME280;40967;52.070;8.596;2024-01-16T00:04:24;99469.13;;;0.24;100.00
55070;BME280;40967;52.070;8.596;2024-01-16T00:06:52;99468.91;;;0.26;100.00
55070;BME280;40967;52.070;8.596;2024-01-16T00:09:18;99471.34;;;0.27;100.00
55070;BME280;40967;52.070;8.596;2024-01-16T00:11:46;99464.59;;;0.25;100.00
55070;BME280;40967;52.070;8.596;2024-01-16T00:14:13;99473.78;;;0.29;100.00
55070;BME280;40967;52.070;8.596;2024-01-16T00:16:42;99471.34;;;0.27;100.00
55070;BME280;40967;52.070;8.596;2024-01-16T00:19:09;99471.34;;;0.27;100.00
55070;BME280;40967;52.070;8.596;2024-01-16T00:21:38;99491.03;;;0.26;100.00
55070;BME280;40967;52.070;8.596;2024-01-16T00:24:05;99496.16;;;0.28;100.00
55070;BME280;40967;52.070;8.596;2024-01-16T00:26:32;99493.50;;;0.28;100.00
55070;BME280;40967;52.070;8.596;2024-01-16T00:29:00;99499.84;;;0.27;100.00
55070;BME280;40967;52.070;8.596;2024-01-16T00:31:27;99493.28;;;0.29;100.00
55070;BME280;40967;52.070;8.596;2024-01-16T00:33:53;99497.09;;;0.33;100.00
55070;BME280;40967;52.070;8.596;2024-01-16T00:36:20;99496.16;;;0.28;100.00
55070;BME280;40967;52.070;8.596;2024-01-16T00:38:47;99499.97;;;0.20;100.00
55070;BME280;40967;52.070;8.596;2024-01-16T00:41:13;99509.34;;;0.23;100.00
55070;BME280;40967;52.070;8.596;2024-01-16T00:43:40;99505.06;;;0.22;100.00
55070;BME280;40967;52.070;8.596;2024-01-16T00:46:08;99506.47;;;0.24;100.00
55070;BME280;40967;52.070;8.596;2024-01-16T00:48:35;99504.59;;;0.25;100.00
55070;BME280;40967;52.070;8.596;2024-01-16T00:51:01;99506.56;;;0.18;100.00
55070;BME280;40967;52.070;8.596;2024-01-16T00:53:28;99504.13;;;0.16;100.00
55070;BME280;40967;52.070;8.596;2024-01-16T00:55:55;99504.72;;;0.18;100.00
55070;BME280;40967;52.070;8.596;2024-01-16T00:58:21;99508.56;;;0.22;100.00
55070;BME280;40967;52.070;8.596;2024-01-16T01:00:48;99510.50;;;0.15;100.00
55070;BME280;40967;52.070;8.596;2024-01-16T01:03:16;99509.69;;;0.15;100.00
55070;BME280;40967;52.070;8.596;2024-01-16T01:05:43;99515.00;;;0.15;100.00
55070;BME280;40967;52.070;8.596;2024-01-16T01:08:09;99523.59;;;0.17;100.00
55070;BME280;40967;52.070;8.596;2024-01-16T01:10:36;99526.75;;;0.14;100.00
55070;BME280;40967;52.070;8.596;2024-01-16T01:13:03;99525.31;;;0.11;100.00
55070;BME280;40967;52.070;8.596;2024-01-16T01:15:29;99524.72;;;0.09;100.00
55070;BME280;40967;52.070;8.596;2024-01-16T01:17:55;99522.28;;;0.08;100.00
55070;BME280;40967;52.070;8.596;2024-01-16T01:20:23;99505.31;;;-0.10;100.00
55070;BME280;40967;52.070;8.596;2024-01-16T01:22:50;99536.31;;;0.03;100.00
55070;BME280;40967;52.070;8.596;2024-01-16T01:25:17;99544.31;;;0.03;100.00
55070;BME280;40967;52.070;8.596;2024-01-16T01:27:43;99548.69;;;-0.03;100.00
55070;BME280;40967;52.070;8.596;2024-01-16T01:30:10;99556.69;;;-0.03;100.00
55070;BME280;40967;52.070;8.596;2024-01-16T01:32:37;99558.31;;;-0.02;100.00
55070;BME280;40967;52.070;8.596;2024-01-16T01:35:05;99561.56;;;0.00;100.00
55070;BME280;40967;52.070;8.596;2024-01-16T01:37:33;99567.50;;;0.03;100.00
55070;BME280;40967;52.070;8.596;2024-01-16T01:39:59;99568.53;;;0.02;100.00
55070;BME280;40967;52.070;8.596;2024-01-16T01:42:26;99566.75;;;-0.05;100.00
55070;BME280;40967;52.070;8.596;2024-01-16T01:44:52;99567.81;;;-0.06;100.00
55070;BME280;40967;52.070;8.596;2024-01-16T01:47:19;99571.25;;;-0.05;100.00
55070;BME280;40967;52.070;8.596;2024-01-16T01:49:46;99573.56;;;-0.09;100.00
55070;BME280;40967;52.070;8.596;2024-01-16T01:52:13;99573.38;;;-0.07;100.00
55070;BME280;40967;52.070;8.596;2024-01-16T01:54:41;99570.16;;;-0.16;100.00
55070;BME280;40967;52.070;8.596;2024-01-16T01:57:08;99579.50;;;-0.07;100.00
55070;BME280;40967;52.070;8.596;2024-01-16T01:59:35;99578.91;;;-0.09;100.00
55070;BME280;40967;52.070;8.596;2024-01-16T02:02:02;99574.84;;;-0.11;100.00
55070;BME280;40967;52.070;8.596;2024-01-16T02:04:31;99587.34;;;-0.12;100.00
55070;BME280;40967;52.070;8.596;2024-01-16T02:06:58;99589.78;;;-0.10;100.00
55070;BME280;40967;52.070;8.596;2024-01-16T02:09:24;99595.22;;;-0.17;100.00
55070;BME280;40967;52.070;8.596;2024-01-16T02:11:52;99592.31;;;-0.15;100.00
55070;BME280;40967;52.070;8.596;2024-01-16T02:14:19;99592.44;;;-0.10;100.00
55070;BME280;40967;52.070;8.596;2024-01-16T02:16:46;99589.13;;;-0.06;100.00
55070;BME280;40967;52.070;8.596;2024-01-16T02:19:12;99594.59;;;-0.01;100.00
55070;BME280;40967;52.070;8.596;2024-01-16T02:21:40;99591.34;;;-0.03;100.00
55070;BME280;40967;52.070;8.596;2024-01-16T02:24:10;99586.38;;;0.01;100.00
55070;BME280;40967;52.070;8.596;2024-01-16T02:26:37;99581.88;;;0.02;100.00
55070;BME280;40967;52.070;8.596;2024-01-16T02:29:04;99572.41;;;-0.13;100.00
55070;BME280;40967;52.070;8.596;2024-01-16T02:31:31;99593.78;;;-0.01;100.00
55070;BME280;40967;52.070;8.596;2024-01-16T02:33:57;99585.06;;;-0.08;100.00
55070;BME280;40967;52.070;8.596;2024-01-16T02:36:24;99595.63;;;-0.02;100.00
55070;BME280;40967;52.070;8.596;2024-01-16T02:38:51;99604.22;;;0.00;100.00
55070;BME280;40967;52.070;8.596;2024-01-16T02:41:19;99598.28;;;-0.02;100.00
55070;BME280;40967;52.070;8.596;2024-01-16T02:43:46;99598.28;;;-0.02;100.00
55070;BME280;40967;52.070;8.596;2024-01-16T02:46:12;99577.75;;;-0.13;100.00
55070;BME280;40967;52.070;8.596;2024-01-16T02:48:39;99592.97;;;-0.02;100.00
55070;BME280;40967;52.070;8.596;2024-01-16T02:51:07;99578.75;;;-0.14;100.00
55070;BME280;40967;52.070;8.596;2024-01-16T02:53:34;99605.03;;;0.01;100.00
55070;BME280;40967;52.070;8.596;2024-01-16T02:56:01;99612.81;;;0.03;100.00
55070;BME280;40967;52.070;8.596;2024-01-16T02:58:30;99611.78;;;0.03;100.00
55070;BME280;40967;52.070;8.596;2024-01-16T03:00:57;99619.44;;;0.00;100.00
55070;BME280;40967;52.070;8.596;2024-01-16T03:03:23;99630.28;;;-0.02;100.00
55070;BME280;40967;52.070;8.596;2024-01-16T03:05:50;99627.44;;;0.00;100.00
55070;BME280;40967;52.070;8.596;2024-01-16T03:08:16;99625.56;;;0.00;100.00
55070;BME280;40967;52.070;8.596;2024-01-16T03:10:43;99620.81;;;0.03;100.00
55070;BME280;40967;52.070;8.596;2024-01-16T03:13:10;99625.88;;;-0.08;100.00
55070;BME280;40967;52.070;8.596;2024-01-16T03:15:38;99580.03;;;-0.34;100.00
55070;BME280;40967;52.070;8.596;2024-01-16T03:18:05;99635.84;;;-0.03;100.00
55070;BME280;40967;52.070;8.596;2024-01-16T03:20:31;99635.19;;;0.02;100.00
55070;BME280;40967;52.070;8.596;2024-01-16T03:22:58;99630.88;;;0.00;100.00
55070;BME280;40967;52.070;8.596;2024-01-16T03:25:24;99637.28;;;-0.01;100.00
55070;BME280;40967;52.070;8.596;2024-01-16T03:27:51;99648.59;;;-0.05;100.00
55070;BME280;40967;52.070;8.596;2024-01-16T03:30:18;99636.97;;;-0.11;100.00
55070;BME280;40967;52.070;8.596;2024-01-16T03:32:46;99638.59;;;-0.10;100.00
55070;BME280;40967;52.070;8.596;2024-01-16T03:35:12;99646.59;;;-0.10;100.00
55070;BME280;40967;52.070;8.596;2024-01-16T03:37:39;99643.47;;;-0.07;100.00
55070;BME280;40967;52.070;8.596;2024-01-16T03:40:06;99640.16;;;-0.02;100.00
55070;BME280;40967;52.070;8.596;2024-01-16T03:42:33;99644.69;;;-0.03;100.00
55070;BME280;40967;52.070;8.596;2024-01-16T03:45:00;99650.59;;;-0.01;100.00
55070;BME280;40967;52.070;8.596;2024-01-16T03:47:27;99646.50;;;-0.03;100.00
55070;BME280;40967;52.070;8.596;2024-01-16T03:49:54;99649.19;;;-0.03;100.00
55070;BME280;40967;52.070;8.596;2024-01-16T03:52:21;99647.78;;;-0.06;100.00
55070;BME280;40967;52.070;8.596;2024-01-16T03:54:48;99649.50;;;-0.11;100.00
55070;BME280;40967;52.070;8.596;2024-01-16T03:57:14;99643.47;;;-0.07;100.00
55070;BME280;40967;52.070;8.596;2024-01-16T03:59:41;99650.47;;;-0.06;100.00
55070;BME280;40967;52.070;8.596;2024-01-16T04:02:07;99644.91;;;-0.04;100.00
55070;BME280;40967;52.070;8.596;2024-01-16T04:04:34;99645.56;;;-0.09;100.00
55070;BME280;40967;52.070;8.596;2024-01-16T04:07:02;99644.31;;;-0.06;100.00
55070;BME280;40967;52.070;8.596;2024-01-16T04:09:29;99642.88;;;-0.09;100.00
55070;BME280;40967;52.070;8.596;2024-01-16T04:11:56;99648.44;;;-0.10;100.00
55070;BME280;40967;52.070;8.596;2024-01-16T04:14:22;99643.78;;;-0.15;100.00
55070;BME280;40967;52.070;8.596;2024-01-16T04:16:49;99649.25;;;-0.10;100.00
55070;BME280;40967;52.070;8.596;2024-01-16T04:19:15;99651.34;;;-0.12;100.00
55070;BME280;40967;52.070;8.596;2024-01-16T04:21:42;99647.19;;;-0.08;100.00
55070;BME280;40967;52.070;8.596;2024-01-16T04:24:10;99657.19;;;-0.03;100.00
55070;BME280;40967;52.070;8.596;2024-01-16T04:26:37;99656.22;;;-0.09;100.00
55070;BME280;40967;52.070;8.596;2024-01-16T04:29:04;99650.88;;;-0.09;100.00
55070;BME280;40967;52.070;8.596;2024-01-16T04:31:30;99650.88;;;-0.09;100.00
55070;BME280;40967;52.070;8.596;2024-01-16T04:33:58;99651.72;;;-0.08;100.00
55070;BME280;40967;52.070;8.596;2024-01-16T04:36:24;99647.66;;;-0.11;100.00
55070;BME280;40967;52.070;8.596;2024-01-16T04:38:51;99649.50;;;-0.11;100.00
55070;BME280;40967;52.070;8.596;2024-01-16T04:41:19;99649.13;;;-0.15;100.00
55070;BME280;40967;52.070;8.596;2024-01-16T04:43:45;99648.66;;;-0.12;100.00
55070;BME280;40967;52.070;8.596;2024-01-16T04:46:14;99648.66;;;-0.12;100.00
55070;BME280;40967;52.070;8.596;2024-01-16T04:48:40;99639.69;;;-0.17;100.00
55070;BME280;40967;52.070;8.596;2024-01-16T04:51:07;99648.44;;;-0.10;100.00
55070;BME280;40967;52.070;8.596;2024-01-16T04:53:34;99634.97;;;-0.15;100.00
55070;BME280;40967;52.070;8.596;2024-01-16T04:56:01;99650.47;;;-0.06;100.00
55070;BME280;40967;52.070;8.596;2024-01-16T04:58:29;99641.88;;;-0.08;100.00
55070;BME280;40967;52.070;8.596;2024-01-16T05:00:55;99646.16;;;-0.07;100.00
55070;BME280;40967;52.070;8.596;2024-01-16T05:03:22;99643.09;;;-0.10;100.00
55070;BME280;40967;52.070;8.596;2024-01-16T05:05:49;99644.06;;;-0.05;100.00
55070;BME280;40967;52.070;8.596;2024-01-16T05:08:15;99642.09;;;-0.09;100.00
55070;BME280;40967;52.070;8.596;2024-01-16T05:10:43;99651.94;;;-0.10;100.00
55070;BME280;40967;52.070;8.596;2024-01-16T05:13:09;99640.66;;;-0.12;100.00
55070;BME280;40967;52.070;8.596;2024-01-16T05:15:40;99631.28;;;-0.14;100.00
55070;BME280;40967;52.070;8.596;2024-01-16T05:18:07;99640.22;;;-0.09;100.00
55070;BME280;40967;52.070;8.596;2024-01-16T05:20:34;99624.59;;;-0.23;100.00
55070;BME280;40967;52.070;8.596;2024-01-16T05:23:01;99636.25;;;-0.18;100.00
55070;BME280;40967;52.070;8.596;2024-01-16T05:25:27;99623.09;;;-0.19;100.00
55070;BME280;40967;52.070;8.596;2024-01-16T05:27:55;99631.28;;;-0.14;100.00
55070;BME280;40967;52.070;8.596;2024-01-16T05:30:22;99631.31;;;-0.21;100.00
55070;BME280;40967;52.070;8.596;2024-01-16T05:32:49;99627.66;;;-0.20;100.00
55070;BME280;40967;52.070;8.596;2024-01-16T05:35:17;99631.09;;;-0.19;100.00
55070;BME280;40967;52.070;8.596;2024-01-16T05:37:43;99636.63;;;-0.14;100.00
55070;BME280;40967;52.070;8.596;2024-01-16T05:40:11;99626.97;;;-0.15;100.00
55070;BME280;40967;52.070;8.596;2024-01-16T05:42:37;99632.66;;;-0.12;100.00
55070;BME280;40967;52.070;8.596;2024-01-16T05:45:05;99635.72;;;-0.08;100.00
55070;BME280;40967;52.070;8.596;2024-01-16T05:47:31;99633.88;;;-0.08;100.00
55070;BME280;40967;52.070;8.596;2024-01-16T05:49:59;99638.97;;;-0.06;100.00
55070;BME280;40967;52.070;8.596;2024-01-16T05:52:26;99638.75;;;-0.05;100.00
55070;BME280;40967;52.070;8.596;2024-01-16T05:54:52;99629.56;;;-0.09;100.00
55070;BME280;40967;52.070;8.596;2024-01-16T05:57:22;99631.19;;;-0.08;100.00
55070;BME280;40967;52.070;8.596;2024-01-16T05:59:49;99631.19;;;-0.08;100.00
55070;BME280;40967;52.070;8.596;2024-01-16T06:02:15;99634.31;;;-0.11;100.00
55070;BME280;40967;52.070;8.596;2024-01-16T06:04:42;99640.44;;;-0.10;100.00
55070;BME280;40967;52.070;8.596;2024-01-16T06:07:10;99623.84;;;-0.12;100.00
55070;BME280;40967;52.070;8.596;2024-01-16T06:09:38;99635.78;;;-0.15;100.00
55070;BME280;40967;52.070;8.596;2024-01-16T06:12:06;99620.28;;;-0.24;100.00
55070;BME280;40967;52.070;8.596;2024-01-16T06:14:33;99622.53;;;-0.21;100.00
55070;BME280;40967;52.070;8.596;2024-01-16T06:17:00;99632.66;;;-0.12;100.00
55070;BME280;40967;52.070;8.596;2024-01-16T06:19:28;99638.44;;;-0.15;100.00
55070;BME280;40967;52.070;8.596;2024-01-16T06:21:55;99638.31;;;-0.20;100.00
55070;BME280;40967;52.070;8.596;2024-01-16T06:24:23;99595.41;;;-0.36;100.00
55070;BME280;40967;52.070;8.596;2024-01-16T06:26:49;99638.81;;;-0.11;100.00
55070;BME280;40967;52.070;8.596;2024-01-16T06:29:16;99637.41;;;-0.14;100.00
55070;BME280;40967;52.070;8.596;2024-01-16T06:31:42;99636.16;;;-0.11;100.00
55070;BME280;40967;52.070;8.596;2024-01-16T06:34:09;99635.94;;;-0.10;100.00
55070;BME280;40967;52.070;8.596;2024-01-16T06:36:38;99635.94;;;-0.10;100.00
55070;BME280;40967;52.070;8.596;2024-01-16T06:39:04;99636.16;;;-0.11;100.00
55070;BME280;40967;52.070;8.596;2024-01-16T06:41:33;99641.03;;;-0.08;100.00
55070;BME280;40967;52.070;8.596;2024-01-16T06:43:59;99629.34;;;-0.07;100.00
55070;BME280;40967;52.070;8.596;2024-01-16T06:46:26;99644.38;;;-0.13;100.00
55070;BME280;40967;52.070;8.596;2024-01-16T06:48:53;99634.50;;;-0.12;100.00
55070;BME280;40967;52.070;8.596;2024-01-16T06:51:19;99636.16;;;-0.11;100.00
55070;BME280;40967;52.070;8.596;2024-01-16T06:53:46;99637.63;;;-0.15;100.00
55070;BME280;40967;52.070;8.596;2024-01-16T06:56:12;99640.66;;;-0.12;100.00
55070;BME280;40967;52.070;8.596;2024-01-16T06:58:40;99642.88;;;-0.09;100.00
55070;BME280;40967;52.070;8.596;2024-01-16T07:01:08;99647.19;;;-0.08;100.00
55070;BME280;40967;52.070;8.596;2024-01-16T07:03:35;99651.34;;;-0.12;100.00
55070;BME280;40967;52.070;8.596;2024-01-16T07:06:03;99650.88;;;-0.09;100.00
55070;BME280;40967;52.070;8.596;2024-01-16T07:08:29;99656.22;;;-0.09;100.00
55070;BME280;40967;52.070;8.596;2024-01-16T07:10:56;99656.88;;;-0.13;100.00
55070;BME280;40967;52.070;8.596;2024-01-16T07:13:22;99659.78;;;-0.15;100.00
55070;BME280;40967;52.070;8.596;2024-01-16T07:15:50;99661.25;;;-0.19;100.00
55070;BME280;40967;52.070;8.596;2024-01-16T07:18:17;99656.97;;;-0.20;100.00
55070;BME280;40967;52.070;8.596;2024-01-16T07:20:44;99659.56;;;-0.13;100.00
55070;BME280;40967;52.070;8.596;2024-01-16T07:23:12;99665.13;;;-0.15;100.00
55070;BME280;40967;52.070;8.596;2024-01-16T07:25:38;99661.63;;;-0.15;100.00
55070;BME280;40967;52.070;8.596;2024-01-16T07:28:05;99670.81;;;-0.11;100.00
55070;BME280;40967;52.070;8.596;2024-01-16T07:30:31;99662.00;;;-0.12;100.00
55070;BME280;40967;52.070;8.596;2024-01-16T07:32:59;99671.63;;;-0.11;100.00
55070;BME280;40967;52.070;8.596;2024-01-16T07:35:26;99656.28;;;-0.15;100.00
55070;BME280;40967;52.070;8.596;2024-01-16T07:37:52;99669.72;;;-0.04;100.00
55070;BME280;40967;52.070;8.596;2024-01-16T07:40:19;99665.19;;;-0.03;100.00
55070;BME280;40967;52.070;8.596;2024-01-16T07:42:46;99659.25;;;-0.05;100.00
55070;BME280;40967;52.070;8.596;2024-01-16T07:45:12;99673.41;;;-0.05;100.00
55070;BME280;40967;52.070;8.596;2024-01-16T07:47:39;99672.97;;;-0.02;100.00
55070;BME280;40967;52.070;8.596;2024-01-16T07:50:09;99677.91;;;-0.05;100.00
55070;BME280;40967;52.070;8.596;2024-01-16T07:52:35;99681.19;;;-0.03;100.00
55070;BME280;40967;52.070;8.596;2024-01-16T07:55:02;99678.88;;;0.00;100.00
55070;BME280;40967;52.070;8.596;2024-01-16T07:57:29;99656.06;;;-0.14;100.00
55070;BME280;40967;52.070;8.596;2024-01-16T07:59:55;99684.81;;;0.03;100.00
55070;BME280;40967;52.070;8.596;2024-01-16T08:02:22;99674.97;;;0.03;100.00
55070;BME280;40967;52.070;8.596;2024-01-16T08:04:49;99684.13;;;0.07;100.00
55070;BME280;40967;52.070;8.596;2024-01-16T08:07:17;99674.97;;;0.03;100.00
55070;BME280;40967;52.070;8.596;2024-01-16T08:09:43;99670.88;;;0.00;100.00
55070;BME280;40967;52.070;8.596;2024-01-16T08:12:10;99671.84;;;0.06;100.00
55070;BME280;40967;52.070;8.596;2024-01-16T08:14:36;99681.69;;;0.06;100.00
55070;BME280;40967;52.070;8.596;2024-01-16T08:17:03;99682.91;;;0.10;100.00
55070;BME280;40967;52.070;8.596;2024-01-16T08:19:30;99679.03;;;0.06;100.00
55070;BME280;40967;52.070;8.596;2024-01-16T08:21:57;99687.78;;;0.13;100.00
55070;BME280;40967;52.070;8.596;2024-01-16T08:24:25;99688.59;;;0.13;100.00
55070;BME280;40967;52.070;8.596;2024-01-16T08:26:52;99698.44;;;0.13;100.00
55070;BME280;40967;52.070;8.596;2024-01-16T08:29:18;99692.75;;;0.09;100.00
55070;BME280;40967;52.070;8.596;2024-01-16T08:31:45;99697.44;;;0.14;100.00
55070;BME280;40967;52.070;8.596;2024-01-16T08:34:12;99697.19;;;0.15;100.00
55070;BME280;40967;52.070;8.596;2024-01-16T08:36:38;99700.50;;;0.11;100.00
55070;BME280;40967;52.070;8.596;2024-01-16T08:39:05;99698.28;;;0.08;100.00
55070;BME280;40967;52.070;8.596;2024-01-16T08:41:33;99690.06;;;0.09;100.00
55070;BME280;40967;52.070;8.596;2024-01-16T08:44:00;99699.72;;;0.10;100.00
55070;BME280;40967;52.070;8.596;2024-01-16T08:46:26;99690.31;;;0.08;100.00
55070;BME280;40967;52.070;8.596;2024-01-16T08:48:53;99692.50;;;0.11;100.00
55070;BME280;40967;52.070;8.596;2024-01-16T08:51:19;99677.28;;;-0.01;100.00
55070;BME280;40967;52.070;8.596;2024-01-16T08:53:46;99702.38;;;0.10;100.00
55070;BME280;40967;52.070;8.596;2024-01-16T08:56:12;99704.81;;;0.12;100.00
55070;BME280;40967;52.070;8.596;2024-01-16T08:58:40;99702.75;;;0.14;100.00
55070;BME280;40967;52.070;8.596;2024-01-16T09:01:07;99700.50;;;0.11;100.00
55070;BME280;40967;52.070;8.596;2024-01-16T09:03:35;99709.47;;;0.16;100.00
55070;BME280;40967;52.070;8.596;2024-01-16T09:06:02;99705.19;;;0.15;100.00
55070;BME280;40967;52.070;8.596;2024-01-16T09:08:29;99675.78;;;0.03;100.00
55070;BME280;40967;52.070;8.596;2024-01-16T09:10:56;99695.56;;;0.14;100.00
55070;BME280;40967;52.070;8.596;2024-01-16T09:13:23;99691.34;;;0.25;100.00
55070;BME280;40967;52.070;8.596;2024-01-16T09:15:51;99705.13;;;0.22;100.00
55070;BME280;40967;52.070;8.596;2024-01-16T09:18:17;99683.94;;;0.09;100.00
55070;BME280;40967;52.070;8.596;2024-01-16T09:20:44;99706.31;;;0.26;100.00
55070;BME280;40967;52.070;8.596;2024-01-16T09:23:12;99685.56;;;0.10;100.00
55070;BME280;40967;52.070;8.596;2024-01-16T09:25:38;99709.63;;;0.21;100.00
55070;BME280;40967;52.070;8.596;2024-01-16T09:28:05;99706.69;;;0.29;100.00
55070;BME280;40967;52.070;8.596;2024-01-16T09:30:32;99706.47;;;0.31;100.00
55070;BME280;40967;52.070;8.596;2024-01-16T09:33:00;99706.47;;;0.31;100.00
55070;BME280;40967;52.070;8.596;2024-01-16T09:35:26;99711.34;;;0.34;100.00
55070;BME280;40967;52.070;8.596;2024-01-16T09:37:53;99700.91;;;0.32;100.00
55070;BME280;40967;52.070;8.596;2024-01-16T09:40:20;99698.31;;;0.26;100.00
55070;BME280;40967;52.070;8.596;2024-01-16T09:42:47;99711.56;;;0.32;100.00
55070;BME280;40967;52.070;8.596;2024-01-16T09:45:18;99709.94;;;0.31;100.00
55070;BME280;40967;52.070;8.596;2024-01-16T09:47:46;99698.00;;;0.34;100.00
55070;BME280;40967;52.070;8.596;2024-01-16T09:50:15;99693.84;;;0.38;100.00
55070;BME280;40967;52.070;8.596;2024-01-16T09:52:43;99689.34;;;0.38;100.00
55070;BME280;40967;52.070;8.596;2024-01-16T09:55:09;99687.69;;;0.37;100.00
55070;BME280;40967;52.070;8.596;2024-01-16T09:57:39;99688.28;;;0.39;100.00
55070;BME280;40967;52.070;8.596;2024-01-16T10:00:07;99698.75;;;0.41;100.00
55070;BME280;40967;52.070;8.596;2024-01-16T10:02:37;99689.47;;;0.43;100.00
55070;BME280;40967;52.070;8.596;2024-01-16T10:05:06;99703.06;;;0.42;100.00
55070;BME280;40967;52.070;8.596;2024-01-16T10:07:35;99693.16;;;0.42;100.00
55070;BME280;40967;52.070;8.596;2024-01-16T10:10:04;99674.31;;;0.26;100.00
55070;BME280;40967;52.070;8.596;2024-01-16T10:12:30;99690.72;;;0.41;100.00
55070;BME280;40967;52.070;8.596;2024-01-16T10:14:57;99662.91;;;0.19;100.00
55070;BME280;40967;52.070;8.596;2024-01-16T10:17:35;99693.41;;;0.41;100.00
55070;BME280;40967;52.070;8.596;2024-01-16T10:20:02;99690.50;;;0.42;100.00
55070;BME280;40967;52.070;8.596;2024-01-16T10:22:29;99678.88;;;0.37;100.00
55070;BME280;40967;52.070;8.596;2024-01-16T10:25:08;99676.78;;;0.39;100.00
55070;BME280;40967;52.070;8.596;2024-01-16T10:27:36;99698.41;;;0.49;100.00
55070;BME280;40967;52.070;8.596;2024-01-16T10:30:03;99679.09;;;0.35;100.00
55070;BME280;40967;52.070;8.596;2024-01-16T10:32:31;99673.41;;;0.32;100.00
55070;BME280;40967;52.070;8.596;2024-01-16T10:35:05;99687.47;;;0.39;100.00
55070;BME280;40967;52.070;8.596;2024-01-16T10:37:40;99690.50;;;0.42;100.00
55070;BME280;40967;52.070;8.596;2024-01-16T10:40:10;99703.84;;;0.42;100.00
55070;BME280;40967;52.070;8.596;2024-01-16T10:42:37;99696.44;;;0.44;100.00
55070;BME280;40967;52.070;8.596;2024-01-16T10:45:05;99697.03;;;0.46;100.00
55070;BME280;40967;52.070;8.596;2024-01-16T10:47:32;99697.84;;;0.47;100.00
55070;BME280;40967;52.070;8.596;2024-01-16T10:50:03;99692.94;;;0.44;100.00
55070;BME280;40967;52.070;8.596;2024-01-16T10:52:33;99689.25;;;0.45;100.00
55070;BME280;40967;52.070;8.596;2024-01-16T10:55:00;99672.75;;;0.36;100.00
55070;BME280;40967;52.070;8.596;2024-01-16T10:57:32;99679.03;;;0.42;100.00
55070;BME280;40967;52.070;8.596;2024-01-16T11:00:03;99693.44;;;0.52;100.00
55070;BME280;40967;52.070;8.596;2024-01-16T11:02:38;99686.63;;;0.56;100.00
55070;BME280;40967;52.070;8.596;2024-01-16T11:05:08;99688.47;;;0.56;100.00
55070;BME280;40967;52.070;8.596;2024-01-16T11:07:37;99683.16;;;0.56;100.00
55070;BME280;40967;52.070;8.596;2024-01-16T11:10:05;99681.53;;;0.55;100.00
55070;BME280;40967;52.070;8.596;2024-01-16T11:12:35;99691.16;;;0.56;100.00
55070;BME280;40967;52.070;8.596;2024-01-16T11:15:06;99690.13;;;0.57;100.00
55070;BME280;40967;52.070;8.596;2024-01-16T11:17:34;99648.38;;;0.33;100.00
55070;BME280;40967;52.070;8.596;2024-01-16T11:20:01;99697.44;;;0.61;100.00
55070;BME280;40967;52.070;8.596;2024-01-16T11:22:31;99694.28;;;0.53;100.00
55070;BME280;40967;52.070;8.596;2024-01-16T11:25:08;99696.50;;;0.56;100.00
55070;BME280;40967;52.070;8.596;2024-01-16T11:27:37;99690.34;;;0.55;100.00
55070;BME280;40967;52.070;8.596;2024-01-16T11:30:05;99696.06;;;0.59;100.00
55070;BME280;40967;52.070;8.596;2024-01-16T11:32:33;99692.56;;;0.58;100.00
55070;BME280;40967;52.070;8.596;2024-01-16T11:35:02;99664.78;;;0.48;100.00
55070;BME280;40967;52.070;8.596;2024-01-16T11:37:30;99684.94;;;0.62;100.00
55070;BME280;40967;52.070;8.596;2024-01-16T11:40:34;99690.72;;;0.59;100.00
55070;BME280;40967;52.070;8.596;2024-01-16T11:43:37;99682.72;;;0.59;100.00
55070;BME280;40967;52.070;8.596;2024-01-16T11:46:05;99668.50;;;0.47;100.00
55070;BME280;40967;52.070;8.596;2024-01-16T11:48:32;99683.91;;;0.45;100.00
55070;BME280;40967;52.070;8.596;2024-01-16T11:50:59;99676.06;;;0.50;100.00
55070;BME280;40967;52.070;8.596;2024-01-16T11:53:33;99678.84;;;0.55;100.00
55070;BME280;40967;52.070;8.596;2024-01-16T11:56:22;99687.81;;;0.60;100.00
55070;BME280;40967;52.070;8.596;2024-01-16T11:59:08;99687.00;;;0.60;100.00
55070;BME280;40967;52.070;8.596;2024-01-16T12:01:42;99690.50;;;0.60;100.00
55070;BME280;40967;52.070;8.596;2024-01-16T12:04:10;99693.53;;;0.64;100.00
55070;BME280;40967;52.070;8.596;2024-01-16T12:06:37;99694.34;;;0.64;100.00
55070;BME280;40967;52.070;8.596;2024-01-16T12:09:13;99687.47;;;0.57;100.00
55070;BME280;40967;52.070;8.596;2024-01-16T12:11:40;99687.22;;;0.58;100.00
55070;BME280;40967;52.070;8.596;2024-01-16T12:14:10;99687.81;;;0.60;100.00
55070;BME280;40967;52.070;8.596;2024-01-16T12:16:36;99678.09;;;0.66;100.00
55070;BME280;40967;52.070;8.596;2024-01-16T12:19:06;99678.09;;;0.66;100.00
55070;BME280;40967;52.070;8.596;2024-01-16T12:21:34;99676.31;;;0.60;100.00
55070;BME280;40967;52.070;8.596;2024-01-16T12:24:01;99687.97;;;0.65;100.00
55070;BME280;40967;52.070;8.596;2024-01-16T12:26:29;99681.19;;;0.63;100.00
55070;BME280;40967;52.070;8.596;2024-01-16T12:28:56;99676.31;;;0.60;100.00
55070;BME280;40967;52.070;8.596;2024-01-16T12:31:24;99672.69;;;0.54;100.00
55070;BME280;40967;52.070;8.596;2024-01-16T12:33:51;99672.47;;;0.56;100.00
55070;BME280;40967;52.070;8.596;2024-01-16T12:36:17;99667.94;;;0.56;100.00
55070;BME280;40967;52.070;8.596;2024-01-16T12:38:44;99662.38;;;0.58;100.00
55070;BME280;40967;52.070;8.596;2024-01-16T12:41:11;99664.03;;;0.59;100.00
55070;BME280;40967;52.070;8.596;2024-01-16T12:43:38;99662.63;;;0.56;100.00
55070;BME280;40967;52.070;8.596;2024-01-16T12:46:05;99648.09;;;0.52;100.00
55070;BME280;40967;52.070;8.596;2024-01-16T12:48:33;99651.56;;;0.53;100.00
55070;BME280;40967;52.070;8.596;2024-01-16T12:51:00;99650.31;;;0.55;100.00
55070;BME280;40967;52.070;8.596;2024-01-16T12:53:27;99651.94;;;0.56;100.00
55070;BME280;40967;52.070;8.596;2024-01-16T12:55:57;99643.94;;;0.56;100.00
55070;BME280;40967;52.070;8.596;2024-01-16T12:58:25;99640.75;;;0.48;100.00